Hlavní strana
METAR-TAF:

METAR-TAF

Letiště :

Coles County Memorial Airport

Mattoon / Charleston, Illinois, Spojené státy americké

zeměpisná šířka: 39-28-41N, zeměpisná délka: 088-16-45W, výška: 220 m

Aktuální stav počasí

Zpráva byla vytvořena před 34 minutami, v 09:53 UTC
Západoseverozápadní vítr 13 kt
Teplota -6°C
Vlhkost vzduchu 68%
Tlak 1019 hPa
Viditelnost: 16.1 km
Jasno

METAR: KMTO 100953Z AUTO 30013KT 10SM CLR M06/M11 A3008 RMK AO2 PK WND 30029/0858 SLP191 T10611106

Čas: 04:27 (10:27 UTC)


TAF: chybějící

Stav a předpovědi počasí z více než 4 000 letišť (zprávy METAR a TAF).

Červené a žluté tečky na mapě představují dostupné meteorologické stanice.

Když kurzor umístíte na tečku, zobrazí se název stanice.

Pak kliknutím zobrazíte stav a předpověď počasí.

Chcete-li změnit mapu, kliknutím na zelené tlačítko se znaménkem +mapu přiblížíte, kliknutím na zelené tlačítko se znaménkem – mapu oddálíte a kliknutím na zelené šipky přejdete na sousední mapy.


METAR-TAF: